map of CYR home
CYR - Airport
Location
City:  Colonia, Colonia, Uruguay
Name:Laguna de Los Patos International Airport
ICAO:SUCA
IATA:CYR

Details
Type:Airport (Aerodrome, Airfield)
Use:International (customs port of entry)
Latitude:3427'23"S (-34.456407)
Longitude:5746'14"W (-57.770616)
Datum:WGS 1984
Elevation:66 ft (20 m)
Variation:9.73W (WMM2015 magnetic declination)
-0.17 annual change
Runways:unknown number
Longest:4495 ft (1370 m)

Time
Time Zone:UTC-3
Local Time:

Weather
TAF:SUCA 161730Z 1618/1718 02010KT CAVOK TX28/1718Z TN14/1710Z
TEMPO 1618/1622 10012KT
BECMG 1622/1700 9999 FEW020 BKN200 PROB30
TEMPO 1708/1718 7000 RA BKN020 BKN060

Related Locations
Nearby:
Farthest:YNZ: 12303 mi / 19800 km
Yancheng, 32, CN

Find:

   beyond  
but within

Other Information
Maps:
NOTAMs:
Links:
Sources:

  
  • flag of Uruguay
  • flag of Colonia
  

Sectional Chart

Flight Planning
at skyvector.com

Satellite Image

Google Maps Satellite view

 

Copyright © 2004-2018 Karl L. Swartz. All rights reserved.
The Great Circle Mapper name and logo are trademarks of the Great Circle Mapper.
All other trademarks mentioned herein belong to their respective owners.
Please see credits for attibutions and further copyright information.

  Follow gcmap on Facebook Follow gcmap on Twitter Follow gcmap on Google+ GCmap on LinkedIn

hCard Microformat

Geo Microformat